sensor_id;sensor_type;location;lat;lon;timestamp;P1;durP1;ratioP1;P2;durP2;ratioP2
31746;SDS011;18319;48.974;8.462;2023-08-24T00:00:29;4.45;;;4.15;;
31746;SDS011;18319;48.974;8.462;2023-08-24T00:02:57;5.80;;;4.85;;
31746;SDS011;18319;48.974;8.462;2023-08-24T00:05:24;4.47;;;4.18;;
31746;SDS011;18319;48.974;8.462;2023-08-24T00:07:51;4.40;;;4.10;;
31746;SDS011;18319;48.974;8.462;2023-08-24T00:10:18;7.20;;;5.05;;
31746;SDS011;18319;48.974;8.462;2023-08-24T00:12:46;6.10;;;5.63;;
31746;SDS011;18319;48.974;8.462;2023-08-24T00:15:13;5.72;;;5.22;;
31746;SDS011;18319;48.974;8.462;2023-08-24T00:17:39;4.72;;;4.43;;
31746;SDS011;18319;48.974;8.462;2023-08-24T00:20:06;5.30;;;4.82;;
31746;SDS011;18319;48.974;8.462;2023-08-24T00:22:36;5.07;;;4.65;;
31746;SDS011;18319;48.974;8.462;2023-08-24T00:25:03;5.80;;;4.85;;
31746;SDS011;18319;48.974;8.462;2023-08-24T00:27:31;5.30;;;4.78;;
31746;SDS011;18319;48.974;8.462;2023-08-24T00:29:59;5.00;;;4.65;;
31746;SDS011;18319;48.974;8.462;2023-08-24T00:32:26;4.10;;;3.88;;
31746;SDS011;18319;48.974;8.462;2023-08-24T00:34:53;5.25;;;4.85;;
31746;SDS011;18319;48.974;8.462;2023-08-24T00:37:19;4.53;;;4.22;;
31746;SDS011;18319;48.974;8.462;2023-08-24T00:39:46;4.47;;;4.13;;
31746;SDS011;18319;48.974;8.462;2023-08-24T00:42:13;4.95;;;4.65;;
31746;SDS011;18319;48.974;8.462;2023-08-24T00:44:40;6.10;;;4.60;;
31746;SDS011;18319;48.974;8.462;2023-08-24T00:47:09;5.00;;;4.60;;
31746;SDS011;18319;48.974;8.462;2023-08-24T00:49:37;5.72;;;4.53;;
31746;SDS011;18319;48.974;8.462;2023-08-24T00:52:04;4.32;;;4.13;;
31746;SDS011;18319;48.974;8.462;2023-08-24T00:54:31;4.47;;;4.18;;
31746;SDS011;18319;48.974;8.462;2023-08-24T00:56:58;5.35;;;4.53;;
31746;SDS011;18319;48.974;8.462;2023-08-24T00:59:25;5.43;;;3.95;;
31746;SDS011;18319;48.974;8.462;2023-08-24T01:01:51;5.22;;;4.32;;
31746;SDS011;18319;48.974;8.462;2023-08-24T01:04:20;4.75;;;4.45;;
31746;SDS011;18319;48.974;8.462;2023-08-24T01:06:48;5.00;;;4.68;;
31746;SDS011;18319;48.974;8.462;2023-08-24T01:09:15;5.07;;;4.68;;
31746;SDS011;18319;48.974;8.462;2023-08-24T01:11:45;4.75;;;4.38;;
31746;SDS011;18319;48.974;8.462;2023-08-24T01:14:21;4.25;;;3.90;;
31746;SDS011;18319;48.974;8.462;2023-08-24T01:16:57;5.55;;;4.75;;
31746;SDS011;18319;48.974;8.462;2023-08-24T01:19:33;9.93;;;5.53;;
31746;SDS011;18319;48.974;8.462;2023-08-24T01:22:04;5.20;;;4.43;;
31746;SDS011;18319;48.974;8.462;2023-08-24T01:24:35;4.20;;;3.92;;
31746;SDS011;18319;48.974;8.462;2023-08-24T01:27:07;4.68;;;4.38;;
31746;SDS011;18319;48.974;8.462;2023-08-24T01:29:35;4.32;;;4.03;;
31746;SDS011;18319;48.974;8.462;2023-08-24T01:32:03;5.20;;;4.90;;
31746;SDS011;18319;48.974;8.462;2023-08-24T01:34:30;4.57;;;4.35;;
31746;SDS011;18319;48.974;8.462;2023-08-24T01:36:57;4.60;;;4.30;;
31746;SDS011;18319;48.974;8.462;2023-08-24T01:39:26;5.40;;;3.78;;
31746;SDS011;18319;48.974;8.462;2023-08-24T01:41:56;4.47;;;4.07;;
31746;SDS011;18319;48.974;8.462;2023-08-24T01:44:29;4.50;;;4.30;;
31746;SDS011;18319;48.974;8.462;2023-08-24T01:47:01;4.72;;;4.35;;
31746;SDS011;18319;48.974;8.462;2023-08-24T01:49:29;5.40;;;4.90;;
31746;SDS011;18319;48.974;8.462;2023-08-24T01:51:57;5.47;;;4.82;;
31746;SDS011;18319;48.974;8.462;2023-08-24T01:54:25;4.30;;;4.00;;
31746;SDS011;18319;48.974;8.462;2023-08-24T01:56:52;6.35;;;4.50;;
31746;SDS011;18319;48.974;8.462;2023-08-24T01:59:19;4.00;;;3.80;;
31746;SDS011;18319;48.974;8.462;2023-08-24T02:01:47;4.63;;;4.15;;
31746;SDS011;18319;48.974;8.462;2023-08-24T02:04:13;6.55;;;4.50;;
31746;SDS011;18319;48.974;8.462;2023-08-24T02:06:40;4.60;;;4.20;;
31746;SDS011;18319;48.974;8.462;2023-08-24T02:09:07;4.53;;;4.20;;
31746;SDS011;18319;48.974;8.462;2023-08-24T02:11:33;5.75;;;4.20;;
31746;SDS011;18319;48.974;8.462;2023-08-24T02:14:00;4.53;;;4.22;;
31746;SDS011;18319;48.974;8.462;2023-08-24T02:16:27;4.82;;;4.35;;
31746;SDS011;18319;48.974;8.462;2023-08-24T02:18:55;5.88;;;5.35;;
31746;SDS011;18319;48.974;8.462;2023-08-24T02:21:22;4.95;;;4.65;;
31746;SDS011;18319;48.974;8.462;2023-08-24T02:23:48;6.80;;;4.43;;
31746;SDS011;18319;48.974;8.462;2023-08-24T02:26:15;5.03;;;4.60;;
31746;SDS011;18319;48.974;8.462;2023-08-24T02:28:42;4.75;;;4.50;;
31746;SDS011;18319;48.974;8.462;2023-08-24T02:31:09;6.97;;;4.85;;
31746;SDS011;18319;48.974;8.462;2023-08-24T02:33:35;7.25;;;4.63;;
31746;SDS011;18319;48.974;8.462;2023-08-24T02:36:04;5.30;;;4.40;;
31746;SDS011;18319;48.974;8.462;2023-08-24T02:38:31;5.82;;;4.78;;
31746;SDS011;18319;48.974;8.462;2023-08-24T02:41:01;5.00;;;4.57;;
31746;SDS011;18319;48.974;8.462;2023-08-24T02:43:28;5.10;;;4.60;;
31746;SDS011;18319;48.974;8.462;2023-08-24T02:45:58;5.35;;;4.85;;
31746;SDS011;18319;48.974;8.462;2023-08-24T02:48:29;6.25;;;4.22;;
31746;SDS011;18319;48.974;8.462;2023-08-24T02:50:56;5.07;;;4.70;;
31746;SDS011;18319;48.974;8.462;2023-08-24T02:53:27;5.35;;;4.72;;
31746;SDS011;18319;48.974;8.462;2023-08-24T02:55:54;4.80;;;4.50;;
31746;SDS011;18319;48.974;8.462;2023-08-24T02:58:21;4.13;;;3.83;;
31746;SDS011;18319;48.974;8.462;2023-08-24T03:00:49;5.07;;;4.68;;
31746;SDS011;18319;48.974;8.462;2023-08-24T03:03:15;5.88;;;5.18;;
31746;SDS011;18319;48.974;8.462;2023-08-24T03:05:51;5.57;;;5.00;;
31746;SDS011;18319;48.974;8.462;2023-08-24T03:08:22;4.85;;;4.45;;
31746;SDS011;18319;48.974;8.462;2023-08-24T03:10:50;6.22;;;5.28;;
31746;SDS011;18319;48.974;8.462;2023-08-24T03:13:17;5.20;;;4.78;;
31746;SDS011;18319;48.974;8.462;2023-08-24T03:15:44;5.25;;;4.47;;
31746;SDS011;18319;48.974;8.462;2023-08-24T03:18:11;4.80;;;4.47;;
31746;SDS011;18319;48.974;8.462;2023-08-24T03:20:38;5.13;;;4.72;;
31746;SDS011;18319;48.974;8.462;2023-08-24T03:23:05;5.03;;;4.57;;
31746;SDS011;18319;48.974;8.462;2023-08-24T03:25:35;5.70;;;4.57;;
31746;SDS011;18319;48.974;8.462;2023-08-24T03:28:04;5.78;;;4.80;;
31746;SDS011;18319;48.974;8.462;2023-08-24T03:30:33;9.75;;;4.85;;
31746;SDS011;18319;48.974;8.462;2023-08-24T03:33:01;5.63;;;4.88;;
31746;SDS011;18319;48.974;8.462;2023-08-24T03:35:28;4.40;;;4.10;;
31746;SDS011;18319;48.974;8.462;2023-08-24T03:37:55;4.70;;;4.13;;
31746;SDS011;18319;48.974;8.462;2023-08-24T03:40:22;6.25;;;4.78;;
31746;SDS011;18319;48.974;8.462;2023-08-24T03:42:49;5.18;;;4.78;;
31746;SDS011;18319;48.974;8.462;2023-08-24T03:45:17;6.00;;;4.90;;
31746;SDS011;18319;48.974;8.462;2023-08-24T03:47:44;5.05;;;4.72;;
31746;SDS011;18319;48.974;8.462;2023-08-24T03:50:10;4.88;;;4.55;;
31746;SDS011;18319;48.974;8.462;2023-08-24T03:52:37;5.47;;;5.05;;
31746;SDS011;18319;48.974;8.462;2023-08-24T03:55:04;5.43;;;5.00;;
31746;SDS011;18319;48.974;8.462;2023-08-24T03:57:32;6.05;;;4.88;;
31746;SDS011;18319;48.974;8.462;2023-08-24T03:59:59;5.90;;;5.40;;
31746;SDS011;18319;48.974;8.462;2023-08-24T04:02:27;5.15;;;4.78;;
31746;SDS011;18319;48.974;8.462;2023-08-24T04:04:53;5.32;;;4.80;;
31746;SDS011;18319;48.974;8.462;2023-08-24T04:07:20;5.22;;;4.82;;
31746;SDS011;18319;48.974;8.462;2023-08-24T04:09:47;6.30;;;5.50;;
31746;SDS011;18319;48.974;8.462;2023-08-24T04:12:14;5.45;;;5.07;;
31746;SDS011;18319;48.974;8.462;2023-08-24T04:14:40;5.22;;;4.82;;
31746;SDS011;18319;48.974;8.462;2023-08-24T04:17:08;5.63;;;5.22;;
31746;SDS011;18319;48.974;8.462;2023-08-24T04:19:37;4.93;;;4.60;;
31746;SDS011;18319;48.974;8.462;2023-08-24T04:22:04;4.80;;;4.40;;
31746;SDS011;18319;48.974;8.462;2023-08-24T04:24:33;5.65;;;5.18;;
31746;SDS011;18319;48.974;8.462;2023-08-24T04:27:00;7.15;;;5.10;;
31746;SDS011;18319;48.974;8.462;2023-08-24T04:29:26;5.10;;;4.60;;
31746;SDS011;18319;48.974;8.462;2023-08-24T04:31:53;5.05;;;4.70;;
31746;SDS011;18319;48.974;8.462;2023-08-24T04:34:20;5.22;;;4.57;;
31746;SDS011;18319;48.974;8.462;2023-08-24T04:36:48;6.07;;;5.50;;
31746;SDS011;18319;48.974;8.462;2023-08-24T04:39:15;6.40;;;5.03;;
31746;SDS011;18319;48.974;8.462;2023-08-24T04:41:43;4.88;;;4.53;;
31746;SDS011;18319;48.974;8.462;2023-08-24T04:44:10;5.78;;;4.90;;
31746;SDS011;18319;48.974;8.462;2023-08-24T04:46:37;5.55;;;5.03;;
31746;SDS011;18319;48.974;8.462;2023-08-24T04:49:03;6.28;;;4.85;;
31746;SDS011;18319;48.974;8.462;2023-08-24T04:51:30;4.78;;;4.47;;
31746;SDS011;18319;48.974;8.462;2023-08-24T04:53:58;5.32;;;4.93;;
31746;SDS011;18319;48.974;8.462;2023-08-24T04:56:27;5.20;;;4.82;;
31746;SDS011;18319;48.974;8.462;2023-08-24T04:58:54;5.28;;;4.88;;
31746;SDS011;18319;48.974;8.462;2023-08-24T05:01:22;6.72;;;4.60;;
31746;SDS011;18319;48.974;8.462;2023-08-24T05:03:50;5.10;;;4.70;;
31746;SDS011;18319;48.974;8.462;2023-08-24T05:06:16;5.00;;;4.70;;
31746;SDS011;18319;48.974;8.462;2023-08-24T05:08:43;6.68;;;5.30;;
31746;SDS011;18319;48.974;8.462;2023-08-24T05:11:12;6.25;;;5.65;;
31746;SDS011;18319;48.974;8.462;2023-08-24T05:13:39;6.13;;;4.88;;
31746;SDS011;18319;48.974;8.462;2023-08-24T05:16:06;5.28;;;4.97;;
31746;SDS011;18319;48.974;8.462;2023-08-24T05:18:33;5.80;;;5.40;;
31746;SDS011;18319;48.974;8.462;2023-08-24T05:21:01;5.97;;;5.50;;
31746;SDS011;18319;48.974;8.462;2023-08-24T05:23:28;8.13;;;6.38;;
31746;SDS011;18319;48.974;8.462;2023-08-24T05:25:56;5.55;;;5.13;;
31746;SDS011;18319;48.974;8.462;2023-08-24T05:28:24;6.00;;;5.07;;
31746;SDS011;18319;48.974;8.462;2023-08-24T05:30:51;5.00;;;4.65;;
31746;SDS011;18319;48.974;8.462;2023-08-24T05:33:18;4.88;;;4.55;;
31746;SDS011;18319;48.974;8.462;2023-08-24T05:35:45;5.45;;;4.88;;
31746;SDS011;18319;48.974;8.462;2023-08-24T05:38:12;5.32;;;4.82;;
31746;SDS011;18319;48.974;8.462;2023-08-24T05:40:39;4.57;;;3.75;;
31746;SDS011;18319;48.974;8.462;2023-08-24T05:43:08;6.97;;;5.07;;
31746;SDS011;18319;48.974;8.462;2023-08-24T05:45:37;7.03;;;4.97;;
31746;SDS011;18319;48.974;8.462;2023-08-24T05:48:05;4.68;;;4.30;;
31746;SDS011;18319;48.974;8.462;2023-08-24T05:50:32;4.75;;;4.45;;
31746;SDS011;18319;48.974;8.462;2023-08-24T05:52:59;4.50;;;4.20;;
31746;SDS011;18319;48.974;8.462;2023-08-24T05:55:26;5.55;;;5.00;;
31746;SDS011;18319;48.974;8.462;2023-08-24T05:57:53;6.10;;;4.35;;
31746;SDS011;18319;48.974;8.462;2023-08-24T06:00:19;4.75;;;4.45;;
31746;SDS011;18319;48.974;8.462;2023-08-24T06:02:48;5.20;;;4.20;;
31746;SDS011;18319;48.974;8.462;2023-08-24T06:05:15;5.68;;;4.88;;
31746;SDS011;18319;48.974;8.462;2023-08-24T06:07:43;4.50;;;4.20;;
31746;SDS011;18319;48.974;8.462;2023-08-24T06:10:10;4.68;;;4.38;;
31746;SDS011;18319;48.974;8.462;2023-08-24T06:12:38;5.18;;;4.78;;
31746;SDS011;18319;48.974;8.462;2023-08-24T06:15:05;5.10;;;4.70;;
31746;SDS011;18319;48.974;8.462;2023-08-24T06:17:34;4.90;;;4.50;;
31746;SDS011;18319;48.974;8.462;2023-08-24T06:20:03;5.97;;;4.53;;
31746;SDS011;18319;48.974;8.462;2023-08-24T06:22:30;5.28;;;4.38;;
31746;SDS011;18319;48.974;8.462;2023-08-24T06:24:57;5.20;;;4.80;;
31746;SDS011;18319;48.974;8.462;2023-08-24T06:27:25;5.57;;;5.07;;
31746;SDS011;18319;48.974;8.462;2023-08-24T06:29:52;5.43;;;5.03;;
31746;SDS011;18319;48.974;8.462;2023-08-24T06:32:19;11.50;;;4.75;;
31746;SDS011;18319;48.974;8.462;2023-08-24T06:34:45;5.00;;;4.60;;
31746;SDS011;18319;48.974;8.462;2023-08-24T06:37:13;4.57;;;4.18;;
31746;SDS011;18319;48.974;8.462;2023-08-24T06:39:40;4.45;;;4.10;;
31746;SDS011;18319;48.974;8.462;2023-08-24T06:42:07;5.57;;;4.32;;
31746;SDS011;18319;48.974;8.462;2023-08-24T06:44:34;4.15;;;3.95;;
31746;SDS011;18319;48.974;8.462;2023-08-24T06:47:00;5.05;;;4.65;;
31746;SDS011;18319;48.974;8.462;2023-08-24T06:49:28;4.70;;;4.30;;
31746;SDS011;18319;48.974;8.462;2023-08-24T06:51:54;4.40;;;4.00;;
31746;SDS011;18319;48.974;8.462;2023-08-24T06:54:22;5.50;;;4.28;;
31746;SDS011;18319;48.974;8.462;2023-08-24T06:56:49;3.67;;;3.42;;
31746;SDS011;18319;48.974;8.462;2023-08-24T06:59:16;6.55;;;3.88;;
31746;SDS011;18319;48.974;8.462;2023-08-24T07:01:43;12.18;;;4.43;;
31746;SDS011;18319;48.974;8.462;2023-08-24T07:04:10;4.68;;;3.60;;
31746;SDS011;18319;48.974;8.462;2023-08-24T07:06:36;3.28;;;3.08;;
31746;SDS011;18319;48.974;8.462;2023-08-24T07:09:03;4.43;;;3.78;;
31746;SDS011;18319;48.974;8.462;2023-08-24T07:11:33;3.65;;;3.45;;
31746;SDS011;18319;48.974;8.462;2023-08-24T07:14:00;4.40;;;3.80;;
31746;SDS011;18319;48.974;8.462;2023-08-24T07:16:27;4.28;;;3.88;;
31746;SDS011;18319;48.974;8.462;2023-08-24T07:18:54;3.90;;;3.10;;
31746;SDS011;18319;48.974;8.462;2023-08-24T07:21:21;3.92;;;3.53;;
31746;SDS011;18319;48.974;8.462;2023-08-24T07:23:47;5.70;;;3.65;;
31746;SDS011;18319;48.974;8.462;2023-08-24T07:26:14;4.15;;;3.40;;
31746;SDS011;18319;48.974;8.462;2023-08-24T07:28:42;3.70;;;3.10;;
31746;SDS011;18319;48.974;8.462;2023-08-24T07:31:09;3.70;;;3.10;;
31746;SDS011;18319;48.974;8.462;2023-08-24T07:33:36;3.83;;;3.28;;
31746;SDS011;18319;48.974;8.462;2023-08-24T07:36:04;4.50;;;2.80;;
31746;SDS011;18319;48.974;8.462;2023-08-24T07:38:31;3.67;;;3.00;;
31746;SDS011;18319;48.974;8.462;2023-08-24T07:40:58;3.00;;;2.65;;
31746;SDS011;18319;48.974;8.462;2023-08-24T07:43:25;4.32;;;3.03;;
31746;SDS011;18319;48.974;8.462;2023-08-24T07:45:53;2.80;;;2.60;;
31746;SDS011;18319;48.974;8.462;2023-08-24T07:48:20;3.13;;;2.83;;
31746;SDS011;18319;48.974;8.462;2023-08-24T07:50:46;3.80;;;2.90;;
31746;SDS011;18319;48.974;8.462;2023-08-24T07:53:13;3.88;;;3.17;;
31746;SDS011;18319;48.974;8.462;2023-08-24T07:55:40;3.00;;;2.70;;
31746;SDS011;18319;48.974;8.462;2023-08-24T07:58:07;2.58;;;2.38;;
31746;SDS011;18319;48.974;8.462;2023-08-24T08:00:34;3.00;;;2.70;;
31746;SDS011;18319;48.974;8.462;2023-08-24T08:03:03;4.32;;;2.42;;
31746;SDS011;18319;48.974;8.462;2023-08-24T08:05:30;2.80;;;2.35;;
31746;SDS011;18319;48.974;8.462;2023-08-24T08:07:57;2.95;;;2.70;;
31746;SDS011;18319;48.974;8.462;2023-08-24T08:10:23;2.80;;;2.45;;
31746;SDS011;18319;48.974;8.462;2023-08-24T08:12:50;3.42;;;3.10;;
31746;SDS011;18319;48.974;8.462;2023-08-24T08:15:17;2.70;;;2.50;;
31746;SDS011;18319;48.974;8.462;2023-08-24T08:17:44;4.95;;;2.47;;
31746;SDS011;18319;48.974;8.462;2023-08-24T08:20:13;4.93;;;2.75;;
31746;SDS011;18319;48.974;8.462;2023-08-24T08:22:41;3.33;;;2.30;;
31746;SDS011;18319;48.974;8.462;2023-08-24T08:25:08;4.50;;;2.90;;
31746;SDS011;18319;48.974;8.462;2023-08-24T08:27:34;3.10;;;2.90;;
31746;SDS011;18319;48.974;8.462;2023-08-24T08:30:01;2.72;;;2.25;;
31746;SDS011;18319;48.974;8.462;2023-08-24T08:32:31;3.15;;;2.85;;
31746;SDS011;18319;48.974;8.462;2023-08-24T08:34:58;3.70;;;2.70;;
31746;SDS011;18319;48.974;8.462;2023-08-24T08:37:27;4.00;;;3.05;;
31746;SDS011;18319;48.974;8.462;2023-08-24T08:39:54;4.60;;;2.95;;
31746;SDS011;18319;48.974;8.462;2023-08-24T08:42:21;3.40;;;2.80;;
31746;SDS011;18319;48.974;8.462;2023-08-24T08:44:48;3.53;;;2.42;;
31746;SDS011;18319;48.974;8.462;2023-08-24T08:47:15;3.13;;;2.92;;
31746;SDS011;18319;48.974;8.462;2023-08-24T08:49:43;4.28;;;2.42;;
31746;SDS011;18319;48.974;8.462;2023-08-24T08:52:13;3.13;;;2.63;;
31746;SDS011;18319;48.974;8.462;2023-08-24T08:54:41;5.30;;;2.90;;
31746;SDS011;18319;48.974;8.462;2023-08-24T08:57:08;2.10;;;1.95;;
31746;SDS011;18319;48.974;8.462;2023-08-24T08:59:36;4.05;;;2.75;;
31746;SDS011;18319;48.974;8.462;2023-08-24T09:02:03;2.78;;;2.50;;
31746;SDS011;18319;48.974;8.462;2023-08-24T09:04:32;3.78;;;2.63;;
31746;SDS011;18319;48.974;8.462;2023-08-24T09:06:59;6.20;;;2.90;;
31746;SDS011;18319;48.974;8.462;2023-08-24T09:09:29;3.42;;;2.35;;
31746;SDS011;18319;48.974;8.462;2023-08-24T09:11:57;4.85;;;2.90;;
31746;SDS011;18319;48.974;8.462;2023-08-24T09:14:25;3.15;;;2.60;;
31746;SDS011;18319;48.974;8.462;2023-08-24T09:16:52;5.68;;;2.83;;
31746;SDS011;18319;48.974;8.462;2023-08-24T09:19:19;6.22;;;2.85;;
31746;SDS011;18319;48.974;8.462;2023-08-24T09:21:56;2.72;;;2.53;;
31746;SDS011;18319;48.974;8.462;2023-08-24T09:24:28;4.22;;;2.90;;
31746;SDS011;18319;48.974;8.462;2023-08-24T09:26:58;3.17;;;2.72;;
31746;SDS011;18319;48.974;8.462;2023-08-24T09:29:25;3.53;;;3.22;;
31746;SDS011;18319;48.974;8.462;2023-08-24T09:31:53;3.97;;;3.30;;
31746;SDS011;18319;48.974;8.462;2023-08-24T09:34:20;2.90;;;2.70;;
31746;SDS011;18319;48.974;8.462;2023-08-24T09:36:51;3.28;;;3.00;;
31746;SDS011;18319;48.974;8.462;2023-08-24T09:39:18;7.03;;;3.60;;
31746;SDS011;18319;48.974;8.462;2023-08-24T09:41:46;7.03;;;3.58;;
31746;SDS011;18319;48.974;8.462;2023-08-24T09:44:17;4.53;;;3.75;;
31746;SDS011;18319;48.974;8.462;2023-08-24T09:46:44;3.72;;;3.45;;
31746;SDS011;18319;48.974;8.462;2023-08-24T09:49:11;10.55;;;3.58;;
31746;SDS011;18319;48.974;8.462;2023-08-24T09:51:38;4.40;;;3.17;;
31746;SDS011;18319;48.974;8.462;2023-08-24T09:54:06;3.38;;;2.95;;
31746;SDS011;18319;48.974;8.462;2023-08-24T09:56:34;7.65;;;3.60;;
31746;SDS011;18319;48.974;8.462;2023-08-24T09:59:04;7.25;;;3.65;;
31746;SDS011;18319;48.974;8.462;2023-08-24T10:01:37;3.03;;;2.83;;
31746;SDS011;18319;48.974;8.462;2023-08-24T10:04:07;8.73;;;3.53;;
31746;SDS011;18319;48.974;8.462;2023-08-24T10:06:36;4.20;;;3.90;;
31746;SDS011;18319;48.974;8.462;2023-08-24T10:09:06;4.05;;;3.67;;
31746;SDS011;18319;48.974;8.462;2023-08-24T10:11:34;6.85;;;3.72;;
31746;SDS011;18319;48.974;8.462;2023-08-24T10:14:08;5.05;;;3.78;;
31746;SDS011;18319;48.974;8.462;2023-08-24T10:16:41;4.65;;;3.15;;
31746;SDS011;18319;48.974;8.462;2023-08-24T10:19:10;11.05;;;4.05;;
31746;SDS011;18319;48.974;8.462;2023-08-24T10:21:37;3.75;;;3.35;;
31746;SDS011;18319;48.974;8.462;2023-08-24T10:24:05;3.65;;;3.35;;
31746;SDS011;18319;48.974;8.462;2023-08-24T10:26:34;4.32;;;3.67;;
31746;SDS011;18319;48.974;8.462;2023-08-24T10:29:02;7.03;;;3.67;;
31746;SDS011;18319;48.974;8.462;2023-08-24T10:31:30;3.97;;;3.67;;
31746;SDS011;18319;48.974;8.462;2023-08-24T10:33:59;3.95;;;3.65;;
31746;SDS011;18319;48.974;8.462;2023-08-24T10:36:26;5.90;;;4.22;;
31746;SDS011;18319;48.974;8.462;2023-08-24T10:38:55;3.85;;;3.55;;
31746;SDS011;18319;48.974;8.462;2023-08-24T10:41:25;5.70;;;4.22;;
31746;SDS011;18319;48.974;8.462;2023-08-24T10:43:52;4.10;;;3.70;;
31746;SDS011;18319;48.974;8.462;2023-08-24T10:46:34;3.58;;;3.10;;
31746;SDS011;18319;48.974;8.462;2023-08-24T10:49:03;3.92;;;3.55;;
31746;SDS011;18319;48.974;8.462;2023-08-24T10:51:30;3.88;;;3.58;;
31746;SDS011;18319;48.974;8.462;2023-08-24T10:53:57;6.03;;;3.22;;
31746;SDS011;18319;48.974;8.462;2023-08-24T10:56:29;3.85;;;3.42;;
31746;SDS011;18319;48.974;8.462;2023-08-24T10:59:11;5.57;;;3.38;;
31746;SDS011;18319;48.974;8.462;2023-08-24T11:01:39;3.67;;;3.47;;
31746;SDS011;18319;48.974;8.462;2023-08-24T11:04:08;3.70;;;3.38;;
31746;SDS011;18319;48.974;8.462;2023-08-24T11:06:50;4.20;;;3.80;;
31746;SDS011;18319;48.974;8.462;2023-08-24T11:09:18;3.45;;;3.17;;
31746;SDS011;18319;48.974;8.462;2023-08-24T11:11:55;8.05;;;3.40;;
31746;SDS011;18319;48.974;8.462;2023-08-24T11:14:23;4.38;;;3.30;;
31746;SDS011;18319;48.974;8.462;2023-08-24T11:16:51;6.32;;;3.65;;
31746;SDS011;18319;48.974;8.462;2023-08-24T11:19:19;4.07;;;3.53;;
31746;SDS011;18319;48.974;8.462;2023-08-24T11:21:46;4.50;;;4.10;;
31746;SDS011;18319;48.974;8.462;2023-08-24T11:24:13;3.72;;;3.42;;
31746;SDS011;18319;48.974;8.462;2023-08-24T11:26:41;7.22;;;4.10;;
31746;SDS011;18319;48.974;8.462;2023-08-24T11:29:09;4.03;;;3.53;;
31746;SDS011;18319;48.974;8.462;2023-08-24T11:31:36;3.70;;;3.40;;
31746;SDS011;18319;48.974;8.462;2023-08-24T11:34:03;4.18;;;3.78;;
31746;SDS011;18319;48.974;8.462;2023-08-24T11:36:39;4.15;;;3.80;;
31746;SDS011;18319;48.974;8.462;2023-08-24T11:39:13;5.18;;;4.13;;
31746;SDS011;18319;48.974;8.462;2023-08-24T11:41:41;9.15;;;3.83;;
31746;SDS011;18319;48.974;8.462;2023-08-24T11:44:08;9.25;;;3.97;;
31746;SDS011;18319;48.974;8.462;2023-08-24T11:46:34;4.85;;;4.05;;
31746;SDS011;18319;48.974;8.462;2023-08-24T11:49:04;4.05;;;3.70;;
31746;SDS011;18319;48.974;8.462;2023-08-24T11:51:31;5.63;;;4.38;;
31746;SDS011;18319;48.974;8.462;2023-08-24T11:54:01;5.43;;;4.07;;
31746;SDS011;18319;48.974;8.462;2023-08-24T11:56:29;6.45;;;4.10;;
31746;SDS011;18319;48.974;8.462;2023-08-24T11:58:56;7.25;;;3.88;;
31746;SDS011;18319;48.974;8.462;2023-08-24T12:01:22;4.80;;;4.22;;
31746;SDS011;18319;48.974;8.462;2023-08-24T12:03:52;4.10;;;3.47;;
31746;SDS011;18319;48.974;8.462;2023-08-24T12:06:19;5.18;;;4.15;;
31746;SDS011;18319;48.974;8.462;2023-08-24T12:08:46;3.95;;;3.65;;
31746;SDS011;18319;48.974;8.462;2023-08-24T12:11:15;6.10;;;4.05;;
31746;SDS011;18319;48.974;8.462;2023-08-24T12:13:44;3.92;;;3.53;;
31746;SDS011;18319;48.974;8.462;2023-08-24T12:16:12;4.00;;;3.60;;
31746;SDS011;18319;48.974;8.462;2023-08-24T12:18:46;10.13;;;3.88;;
31746;SDS011;18319;48.974;8.462;2023-08-24T12:21:14;4.82;;;4.35;;
31746;SDS011;18319;48.974;8.462;2023-08-24T12:23:41;8.20;;;4.15;;
31746;SDS011;18319;48.974;8.462;2023-08-24T12:26:08;4.90;;;3.88;;
31746;SDS011;18319;48.974;8.462;2023-08-24T12:28:48;3.67;;;3.40;;
31746;SDS011;18319;48.974;8.462;2023-08-24T12:31:15;4.15;;;3.88;;
31746;SDS011;18319;48.974;8.462;2023-08-24T12:33:43;5.45;;;4.63;;
31746;SDS011;18319;48.974;8.462;2023-08-24T12:36:11;4.35;;;4.00;;
31746;SDS011;18319;48.974;8.462;2023-08-24T12:38:38;5.30;;;4.07;;
31746;SDS011;18319;48.974;8.462;2023-08-24T12:41:06;6.43;;;4.78;;
31746;SDS011;18319;48.974;8.462;2023-08-24T12:43:33;4.22;;;3.90;;
31746;SDS011;18319;48.974;8.462;2023-08-24T12:46:01;3.53;;;3.22;;
31746;SDS011;18319;48.974;8.462;2023-08-24T12:48:29;5.80;;;3.72;;
31746;SDS011;18319;48.974;8.462;2023-08-24T12:50:55;6.55;;;4.25;;
31746;SDS011;18319;48.974;8.462;2023-08-24T12:53:22;4.40;;;4.15;;
31746;SDS011;18319;48.974;8.462;2023-08-24T12:55:49;6.18;;;3.70;;
31746;SDS011;18319;48.974;8.462;2023-08-24T12:58:18;4.35;;;4.00;;
31746;SDS011;18319;48.974;8.462;2023-08-24T13:00:45;9.77;;;4.72;;
31746;SDS011;18319;48.974;8.462;2023-08-24T13:03:13;5.57;;;4.15;;
31746;SDS011;18319;48.974;8.462;2023-08-24T13:05:40;5.78;;;3.50;;
31746;SDS011;18319;48.974;8.462;2023-08-24T13:08:06;4.47;;;4.15;;
31746;SDS011;18319;48.974;8.462;2023-08-24T13:10:33;4.80;;;4.10;;
31746;SDS011;18319;48.974;8.462;2023-08-24T13:13:01;4.53;;;3.95;;
31746;SDS011;18319;48.974;8.462;2023-08-24T13:15:28;6.43;;;3.97;;
31746;SDS011;18319;48.974;8.462;2023-08-24T13:17:55;4.22;;;3.90;;
31746;SDS011;18319;48.974;8.462;2023-08-24T13:20:24;3.85;;;3.55;;
31746;SDS011;18319;48.974;8.462;2023-08-24T13:22:51;6.60;;;3.60;;
31746;SDS011;18319;48.974;8.462;2023-08-24T13:25:18;5.35;;;4.10;;
31746;SDS011;18319;48.974;8.462;2023-08-24T13:27:45;3.53;;;3.22;;
31746;SDS011;18319;48.974;8.462;2023-08-24T13:30:12;3.95;;;3.75;;
31746;SDS011;18319;48.974;8.462;2023-08-24T13:32:39;4.88;;;4.45;;
31746;SDS011;18319;48.974;8.462;2023-08-24T13:35:08;3.95;;;3.38;;
31746;SDS011;18319;48.974;8.462;2023-08-24T13:37:36;5.72;;;4.18;;
31746;SDS011;18319;48.974;8.462;2023-08-24T13:40:04;6.35;;;4.50;;
31746;SDS011;18319;48.974;8.462;2023-08-24T13:42:32;4.60;;;4.30;;
31746;SDS011;18319;48.974;8.462;2023-08-24T13:44:59;4.72;;;4.30;;
31746;SDS011;18319;48.974;8.462;2023-08-24T13:47:26;5.30;;;4.05;;
31746;SDS011;18319;48.974;8.462;2023-08-24T13:49:53;4.63;;;4.22;;
31746;SDS011;18319;48.974;8.462;2023-08-24T13:52:20;4.65;;;4.35;;
31746;SDS011;18319;48.974;8.462;2023-08-24T13:54:48;7.65;;;3.83;;
31746;SDS011;18319;48.974;8.462;2023-08-24T13:57:15;5.50;;;4.20;;
31746;SDS011;18319;48.974;8.462;2023-08-24T13:59:41;4.78;;;3.97;;
31746;SDS011;18319;48.974;8.462;2023-08-24T14:02:08;5.07;;;4.10;;
31746;SDS011;18319;48.974;8.462;2023-08-24T14:04:36;4.43;;;4.13;;
31746;SDS011;18319;48.974;8.462;2023-08-24T14:07:03;5.40;;;4.75;;
31746;SDS011;18319;48.974;8.462;2023-08-24T14:09:30;5.10;;;4.63;;
31746;SDS011;18319;48.974;8.462;2023-08-24T14:11:59;6.38;;;4.57;;
31746;SDS011;18319;48.974;8.462;2023-08-24T14:14:26;5.60;;;4.95;;
31746;SDS011;18319;48.974;8.462;2023-08-24T14:16:55;4.72;;;4.43;;
31746;SDS011;18319;48.974;8.462;2023-08-24T14:19:22;7.28;;;5.47;;
31746;SDS011;18319;48.974;8.462;2023-08-24T14:21:50;9.32;;;5.45;;
31746;SDS011;18319;48.974;8.462;2023-08-24T14:24:16;16.60;;;7.82;;
31746;SDS011;18319;48.974;8.462;2023-08-24T14:26:43;12.85;;;8.13;;
31746;SDS011;18319;48.974;8.462;2023-08-24T14:29:12;15.52;;;7.70;;
31746;SDS011;18319;48.974;8.462;2023-08-24T14:31:40;8.40;;;7.47;;
31746;SDS011;18319;48.974;8.462;2023-08-24T14:34:07;12.50;;;8.50;;
31746;SDS011;18319;48.974;8.462;2023-08-24T14:36:34;10.95;;;7.88;;
31746;SDS011;18319;48.974;8.462;2023-08-24T14:39:00;11.15;;;7.68;;
31746;SDS011;18319;48.974;8.462;2023-08-24T14:41:27;7.75;;;6.95;;
31746;SDS011;18319;48.974;8.462;2023-08-24T14:43:54;7.43;;;6.78;;
31746;SDS011;18319;48.974;8.462;2023-08-24T14:46:22;8.18;;;6.50;;
31746;SDS011;18319;48.974;8.462;2023-08-24T14:48:49;7.45;;;6.15;;
31746;SDS011;18319;48.974;8.462;2023-08-24T14:51:16;7.72;;;7.22;;